createdAt,value
2022-11-25T00:01:36.150Z,71.48
2022-11-25T00:04:06.122Z,71.55
2022-11-25T00:06:35.425Z,71.86
2022-11-25T00:09:06.965Z,71.81
2022-11-25T00:11:36.904Z,72.21
2022-11-25T00:14:05.747Z,71.90
2022-11-25T00:16:34.160Z,72.40
2022-11-25T00:19:02.265Z,71.23
2022-11-25T00:21:35.012Z,71.53
2022-11-25T00:24:04.927Z,71.14
2022-11-25T00:26:34.496Z,71.44
2022-11-25T00:29:04.646Z,71.15
2022-11-25T00:31:35.154Z,71.44
2022-11-25T00:34:03.956Z,71.12
2022-11-25T00:36:35.501Z,71.40
2022-11-25T00:39:05.761Z,71.47
2022-11-25T00:41:51.423Z,71.38
2022-11-25T00:44:40.764Z,71.12
2022-11-25T00:47:13.150Z,71.04
2022-11-25T00:49:42.835Z,70.71
2022-11-25T00:52:15.291Z,70.67
2022-11-25T00:54:44.794Z,70.19
2022-11-25T00:57:12.934Z,69.51
2022-11-25T00:59:41.115Z,69.47
2022-11-25T01:02:10.065Z,68.57
2022-11-25T01:04:38.378Z,68.44
2022-11-25T01:07:06.676Z,68.52
2022-11-25T01:09:36.324Z,67.26
2022-11-25T01:12:05.420Z,67.28
2022-11-25T01:14:34.410Z,67.24
2022-11-25T01:17:02.935Z,67.43
2022-11-25T01:19:31.142Z,67.09
2022-11-25T01:21:59.171Z,67.30
2022-11-25T01:24:27.608Z,67.14
2022-11-25T01:26:57.161Z,67.12
2022-11-25T01:29:25.438Z,67.53
2022-11-25T01:31:56.405Z,67.35
2022-11-25T01:34:26.964Z,66.96
2022-11-25T01:36:55.013Z,67.39
2022-11-25T01:39:30.468Z,67.95
2022-11-25T01:42:01.947Z,67.44
2022-11-25T01:44:31.823Z,67.92
2022-11-25T01:47:07.448Z,67.34
2022-11-25T01:49:42.019Z,67.42
2022-11-25T01:52:15.454Z,67.51
2022-11-25T01:54:50.676Z,67.92
2022-11-25T01:57:26.043Z,68.25
2022-11-25T01:59:57.558Z,67.99
2022-11-25T02:02:25.999Z,68.61
2022-11-25T02:04:54.208Z,68.83
2022-11-25T02:07:32.195Z,68.54
2022-11-25T02:10:03.034Z,68.57
2022-11-25T02:12:33.472Z,69.21
2022-11-25T02:15:01.477Z,68.73
2022-11-25T02:17:30.031Z,68.86
2022-11-25T02:20:03.857Z,69.25
2022-11-25T02:22:46.605Z,69.40
2022-11-25T02:25:19.127Z,69.40
2022-11-25T02:27:52.417Z,69.29
2022-11-25T02:30:20.635Z,69.24
2022-11-25T02:32:49.805Z,69.19
2022-11-25T02:35:33.218Z,69.00
2022-11-25T02:38:08.177Z,68.88
2022-11-25T02:40:42.078Z,68.46
2022-11-25T02:43:10.174Z,68.56
2022-11-25T02:45:50.527Z,68.90
2022-11-25T02:48:19.437Z,68.72
2022-11-25T02:50:48.202Z,68.77
2022-11-25T02:53:16.537Z,68.81
2022-11-25T02:55:46.413Z,68.45
2022-11-25T02:58:14.946Z,68.36
2022-11-25T03:00:43.722Z,67.39
2022-11-25T03:03:12.707Z,67.43
2022-11-25T03:05:40.773Z,67.07
2022-11-25T03:08:09.340Z,67.66
2022-11-25T03:10:38.468Z,67.03
2022-11-25T03:13:09.310Z,66.85
2022-11-25T03:15:37.529Z,66.81
2022-11-25T03:18:06.439Z,67.01
2022-11-25T03:20:35.290Z,66.78
2022-11-25T03:23:04.337Z,66.82
2022-11-25T03:25:32.530Z,66.81
2022-11-25T03:28:00.493Z,66.73
2022-11-25T03:30:30.503Z,66.90
2022-11-25T03:32:58.785Z,66.87
2022-11-25T03:35:26.865Z,66.71
2022-11-25T03:37:55.170Z,66.91
2022-11-25T03:40:23.360Z,66.85
2022-11-25T03:42:51.609Z,67.25
2022-11-25T03:45:19.848Z,66.65
2022-11-25T03:47:49.367Z,66.67
2022-11-25T03:50:17.534Z,66.38
2022-11-25T03:52:45.693Z,66.42
2022-11-25T03:55:14.298Z,66.56
2022-11-25T03:57:42.834Z,66.33
2022-11-25T04:00:12.300Z,66.69
2022-11-25T04:02:40.356Z,66.65
2022-11-25T04:05:10.591Z,66.09
2022-11-25T04:07:38.738Z,66.42
2022-11-25T04:10:08.217Z,66.42
2022-11-25T04:12:48.413Z,66.29
2022-11-25T04:15:18.694Z,66.55
2022-11-25T04:17:47.376Z,66.41
2022-11-25T04:20:17.375Z,65.97
2022-11-25T04:22:45.638Z,65.16
2022-11-25T04:25:14.192Z,64.79
2022-11-25T04:27:42.184Z,65.04
2022-11-25T04:30:11.028Z,64.92
2022-11-25T04:32:40.054Z,64.90
2022-11-25T04:35:08.661Z,65.53
2022-11-25T04:37:38.069Z,65.51
2022-11-25T04:40:07.950Z,65.18
2022-11-25T04:42:36.976Z,65.49
2022-11-25T04:45:22.859Z,65.12
2022-11-25T04:47:52.824Z,64.94
2022-11-25T04:50:23.338Z,64.94
2022-11-25T04:52:52.759Z,65.38
2022-11-25T04:55:20.892Z,65.73
2022-11-25T04:57:49.013Z,65.79
2022-11-25T05:00:16.903Z,66.37
2022-11-25T05:02:45.135Z,66.24
2022-11-25T05:05:19.465Z,66.47
2022-11-25T05:07:50.746Z,67.11
2022-11-25T05:10:21.005Z,66.96
2022-11-25T05:12:49.139Z,66.73
2022-11-25T05:15:17.366Z,66.32
2022-11-25T05:17:45.570Z,66.30
2022-11-25T05:20:14.098Z,66.30
2022-11-25T05:22:42.038Z,65.54
2022-11-25T05:25:10.964Z,64.95
2022-11-25T05:27:40.564Z,65.29
2022-11-25T05:30:10.210Z,64.82
2022-11-25T05:32:38.301Z,64.38
2022-11-25T05:35:07.218Z,64.90
2022-11-25T05:37:35.340Z,64.46
2022-11-25T05:40:04.552Z,64.55
2022-11-25T05:42:32.779Z,64.55
2022-11-25T05:45:02.349Z,64.89
2022-11-25T05:47:31.115Z,65.15
2022-11-25T05:49:59.167Z,65.30
2022-11-25T05:52:27.170Z,65.35
2022-11-25T05:54:57.486Z,65.60
2022-11-25T05:57:25.747Z,65.80
2022-11-25T05:59:53.745Z,65.90
2022-11-25T06:02:24.142Z,66.00
2022-11-25T06:04:52.204Z,65.77
2022-11-25T06:07:20.273Z,65.91
2022-11-25T06:09:48.466Z,65.92
2022-11-25T06:12:16.598Z,66.23
2022-11-25T06:14:44.627Z,66.63
2022-11-25T06:17:12.660Z,66.39
2022-11-25T06:19:41.959Z,66.78
2022-11-25T06:22:10.005Z,66.70
2022-11-25T06:24:39.125Z,66.43
2022-11-25T06:27:08.173Z,66.33
2022-11-25T06:29:37.207Z,66.24
2022-11-25T06:32:06.292Z,65.99
2022-11-25T06:34:36.625Z,65.86
2022-11-25T06:37:06.332Z,66.13
2022-11-25T06:39:34.384Z,65.97
2022-11-25T06:42:02.480Z,65.52
2022-11-25T06:44:30.531Z,65.35
2022-11-25T06:46:58.883Z,64.57
2022-11-25T06:49:27.055Z,64.89
2022-11-25T06:51:55.281Z,64.76
2022-11-25T06:54:24.830Z,64.63
2022-11-25T06:56:53.893Z,64.65
2022-11-25T06:59:22.808Z,64.44
2022-11-25T07:01:51.048Z,64.48
2022-11-25T07:04:19.175Z,63.90
2022-11-25T07:06:47.425Z,64.40
2022-11-25T07:09:15.489Z,64.53
2022-11-25T07:11:44.914Z,64.75
2022-11-25T07:14:15.481Z,64.55
2022-11-25T07:17:06.169Z,65.36
2022-11-25T07:19:37.134Z,65.43
2022-11-25T07:22:05.357Z,65.87
2022-11-25T07:24:34.167Z,65.49
2022-11-25T07:27:06.065Z,65.99
2022-11-25T07:29:54.555Z,65.87
2022-11-25T07:32:23.741Z,65.77
2022-11-25T07:34:52.412Z,66.03
2022-11-25T07:37:21.037Z,65.60
2022-11-25T07:39:49.115Z,65.97
2022-11-25T07:42:18.537Z,65.35
2022-11-25T07:44:46.644Z,65.00
2022-11-25T07:47:14.753Z,65.21
2022-11-25T07:49:43.123Z,65.38
2022-11-25T07:52:11.318Z,64.97
2022-11-25T07:54:39.383Z,65.01
2022-11-25T07:57:07.524Z,64.12
2022-11-25T07:59:41.346Z,63.80
2022-11-25T08:02:14.166Z,63.59
2022-11-25T08:04:42.530Z,63.26
2022-11-25T08:07:12.408Z,63.06
2022-11-25T08:09:40.489Z,63.12
2022-11-25T08:12:08.717Z,63.41
2022-11-25T08:14:38.781Z,63.46
2022-11-25T08:17:06.800Z,63.78
2022-11-25T08:19:36.042Z,64.15
2022-11-25T08:22:04.656Z,64.23
2022-11-25T08:24:32.797Z,63.80
2022-11-25T08:27:02.080Z,64.18
2022-11-25T08:29:30.256Z,63.28
2022-11-25T08:31:59.757Z,63.32
2022-11-25T08:34:27.903Z,62.73
2022-11-25T08:36:56.010Z,62.84
2022-11-25T08:42:15.978Z,61.91
2022-11-25T08:44:45.070Z,61.39
2022-11-25T08:47:14.897Z,59.88
2022-11-25T08:49:43.573Z,59.53
2022-11-25T08:52:12.299Z,58.60
2022-11-25T08:54:40.291Z,55.30
2022-11-25T08:57:08.329Z,55.03
2022-11-25T08:59:36.676Z,54.51
2022-11-25T09:02:05.390Z,54.14
2022-11-25T09:04:34.985Z,52.80
2022-11-25T09:07:05.298Z,52.61
2022-11-25T09:09:33.451Z,51.84
2022-11-25T09:12:01.736Z,51.59
2022-11-25T09:14:29.976Z,51.47
2022-11-25T09:16:58.260Z,50.94
2022-11-25T09:19:26.378Z,50.67
2022-11-25T09:21:55.947Z,50.10
2022-11-25T09:24:23.936Z,50.32
2022-11-25T09:26:52.283Z,50.31
2022-11-25T09:29:20.271Z,50.16
2022-11-25T09:31:53.152Z,49.33
2022-11-25T09:34:23.132Z,48.49
2022-11-25T09:36:51.637Z,48.39
2022-11-25T09:39:21.194Z,47.56
2022-11-25T09:42:20.639Z,47.64
2022-11-25T09:45:18.193Z,48.13
2022-11-25T09:47:57.332Z,47.93
2022-11-25T09:50:36.117Z,47.59
2022-11-25T09:53:12.524Z,47.66
2022-11-25T09:55:46.843Z,47.47
2022-11-25T09:58:27.081Z,46.86
2022-11-25T10:00:55.307Z,46.35
2022-11-25T10:03:35.839Z,46.76
2022-11-25T10:06:09.580Z,47.31
2022-11-25T10:08:41.273Z,46.70
2022-11-25T10:11:23.800Z,46.14
2022-11-25T10:14:04.682Z,46.10
2022-11-25T10:16:37.468Z,46.30
2022-11-25T10:19:16.855Z,45.75
2022-11-25T10:21:46.408Z,46.67
2022-11-25T10:24:17.923Z,45.89
2022-11-25T10:26:52.437Z,44.93
2022-11-25T10:29:26.304Z,44.31
2022-11-25T10:32:01.843Z,44.23
2022-11-25T10:34:37.503Z,43.65
2022-11-25T10:37:14.056Z,44.50
2022-11-25T10:39:43.468Z,44.49
2022-11-25T10:42:19.678Z,45.04
2022-11-25T10:44:48.364Z,44.77
2022-11-25T10:47:33.573Z,44.32
2022-11-25T10:50:09.815Z,45.01
2022-11-25T10:52:40.867Z,44.54
2022-11-25T10:55:14.494Z,44.87
2022-11-25T10:57:44.545Z,44.88
2022-11-25T11:00:28.264Z,44.93
2022-11-25T11:02:57.461Z,44.52
2022-11-25T11:05:29.805Z,45.08
2022-11-25T11:08:18.218Z,44.53
2022-11-25T11:10:46.912Z,44.28
2022-11-25T11:13:26.141Z,44.38
2022-11-25T11:15:55.311Z,44.06
2022-11-25T11:18:28.149Z,44.34
2022-11-25T11:20:58.007Z,44.13
2022-11-25T11:23:26.961Z,44.17
2022-11-25T11:26:03.299Z,43.96
2022-11-25T11:28:41.790Z,44.12
2022-11-25T11:31:19.453Z,44.02
2022-11-25T11:33:58.407Z,44.49
2022-11-25T11:36:45.022Z,44.79
2022-11-25T11:39:27.075Z,44.87
2022-11-25T11:42:02.119Z,44.76
2022-11-25T11:44:41.381Z,44.55
2022-11-25T11:47:23.902Z,44.29
2022-11-25T11:50:26.331Z,44.72
2022-11-25T11:52:59.682Z,44.66
2022-11-25T11:55:42.667Z,44.69
2022-11-25T11:58:23.953Z,44.89
2022-11-25T12:01:05.599Z,44.12
2022-11-25T12:03:41.096Z,43.60
2022-11-25T12:06:12.471Z,43.67
2022-11-25T12:08:47.676Z,43.83
2022-11-25T12:11:19.953Z,43.35
2022-11-25T12:13:57.869Z,43.35
2022-11-25T12:16:35.675Z,43.50
2022-11-25T12:19:10.460Z,43.67
2022-11-25T12:21:45.397Z,43.78
2022-11-25T12:24:22.594Z,43.73
2022-11-25T12:26:57.293Z,44.04
2022-11-25T12:29:35.034Z,43.99
2022-11-25T12:32:21.017Z,44.42
2022-11-25T12:34:55.810Z,44.09
2022-11-25T12:37:34.065Z,43.54
2022-11-25T12:40:08.985Z,43.86
2022-11-25T12:42:41.221Z,44.08
2022-11-25T12:45:17.139Z,44.84
2022-11-25T12:47:46.828Z,45.16
2022-11-25T12:50:22.175Z,43.81
2022-11-25T12:53:00.241Z,44.48
2022-11-25T12:55:29.502Z,44.62
2022-11-25T12:58:39.241Z,45.19
2022-11-25T13:01:34.489Z,44.97
2022-11-25T13:04:33.587Z,45.36
2022-11-25T13:07:21.316Z,44.58
2022-11-25T13:10:26.476Z,44.55
2022-11-25T13:13:18.075Z,44.75
2022-11-25T13:15:48.931Z,44.87
2022-11-25T13:18:20.476Z,45.26
2022-11-25T13:20:54.889Z,45.28
2022-11-25T13:23:31.647Z,45.78
2022-11-25T13:26:37.816Z,46.22
2022-11-25T13:29:42.076Z,46.29
2022-11-25T13:32:31.329Z,46.13
2022-11-25T13:35:40.803Z,46.27
2022-11-25T13:38:38.901Z,46.44
2022-11-25T13:41:23.893Z,46.76
2022-11-25T13:44:01.959Z,46.82
2022-11-25T13:46:40.017Z,47.45
2022-11-25T13:49:23.276Z,47.83
2022-11-25T13:51:53.089Z,48.19
2022-11-25T13:54:28.439Z,48.29
2022-11-25T13:57:28.801Z,48.31
2022-11-25T14:00:00.400Z,48.77
2022-11-25T14:02:45.186Z,49.64
2022-11-25T14:05:31.487Z,49.56
2022-11-25T14:08:12.157Z,49.67
2022-11-25T14:10:46.965Z,50.03
2022-11-25T14:13:58.955Z,50.04
2022-11-25T14:16:47.273Z,50.37
2022-11-25T14:19:51.151Z,50.61
2022-11-25T14:22:48.974Z,50.94
2022-11-25T14:25:23.417Z,50.97
2022-11-25T14:28:03.867Z,51.41
2022-11-25T14:30:33.852Z,51.71
2022-11-25T14:33:05.092Z,51.71
2022-11-25T14:35:43.648Z,51.59
2022-11-25T14:38:18.844Z,52.22
2022-11-25T14:40:54.766Z,52.38
2022-11-25T14:43:26.990Z,52.60
2022-11-25T14:46:12.082Z,52.16
2022-11-25T14:48:40.653Z,52.87
2022-11-25T14:51:10.317Z,52.62
2022-11-25T14:53:47.528Z,53.12
2022-11-25T14:56:18.550Z,53.09
2022-11-25T14:58:51.263Z,52.93
2022-11-25T15:01:20.884Z,52.97
2022-11-25T15:03:49.463Z,53.65
2022-11-25T15:06:20.012Z,53.20
2022-11-25T15:08:57.180Z,53.51
2022-11-25T15:11:29.844Z,53.20
2022-11-25T15:14:03.327Z,53.70
2022-11-25T15:16:36.152Z,54.07
2022-11-25T15:19:06.900Z,54.48
2022-11-25T15:21:53.781Z,54.73
2022-11-25T15:24:27.664Z,54.94
2022-11-25T15:26:58.139Z,55.30
2022-11-25T15:29:30.187Z,55.39
2022-11-25T15:32:00.286Z,55.70
2022-11-25T15:34:31.024Z,55.52
2022-11-25T15:37:03.159Z,56.17
2022-11-25T15:39:31.282Z,56.34
2022-11-25T15:42:07.771Z,56.34
2022-11-25T15:44:40.256Z,56.92
2022-11-25T15:47:20.095Z,57.25
2022-11-25T15:49:54.922Z,57.63
2022-11-25T15:52:25.258Z,58.40
2022-11-25T15:54:57.018Z,58.68
2022-11-25T15:57:29.622Z,59.07
2022-11-25T16:00:16.269Z,58.99
2022-11-25T16:02:53.557Z,59.53
2022-11-25T16:05:39.844Z,59.51
2022-11-25T16:08:32.971Z,59.67
2022-11-25T16:11:12.117Z,59.68
2022-11-25T16:13:40.963Z,59.89
2022-11-25T16:16:21.037Z,60.12
2022-11-25T16:18:59.215Z,60.13
2022-11-25T16:21:31.504Z,60.38
2022-11-25T16:24:14.730Z,60.76
2022-11-25T16:26:52.414Z,61.31
2022-11-25T16:29:26.439Z,61.81
2022-11-25T16:31:55.857Z,61.65
2022-11-25T16:34:26.419Z,61.69
2022-11-25T16:36:54.808Z,62.08
2022-11-25T16:39:22.817Z,62.00
2022-11-25T16:41:57.830Z,62.52
2022-11-25T16:44:28.330Z,62.67
2022-11-25T16:46:59.215Z,63.29
2022-11-25T16:49:27.558Z,63.56
2022-11-25T16:51:55.602Z,63.98
2022-11-25T16:54:24.587Z,64.59
2022-11-25T16:56:54.774Z,64.19
2022-11-25T16:59:30.756Z,64.17
2022-11-25T17:02:01.522Z,64.32
2022-11-25T17:04:29.788Z,64.64
2022-11-25T17:07:30.936Z,64.49
2022-11-25T17:09:47.203Z,64.67
2022-11-25T17:12:19.282Z,65.01
2022-11-25T17:14:49.408Z,65.38
2022-11-25T17:17:24.649Z,65.28
2022-11-25T17:19:53.317Z,65.71
2022-11-25T17:22:23.172Z,66.32
2022-11-25T17:24:51.552Z,67.00
2022-11-25T17:27:25.039Z,67.66
2022-11-25T17:29:54.457Z,68.15
2022-11-25T17:32:25.477Z,68.37
2022-11-25T17:34:53.683Z,68.39
2022-11-25T17:37:24.038Z,68.71
2022-11-25T17:39:53.626Z,68.39
2022-11-25T17:42:28.100Z,68.75
2022-11-25T17:44:56.207Z,68.84
2022-11-25T17:47:25.676Z,69.17
2022-11-25T17:49:54.454Z,69.10
2022-11-25T17:52:22.574Z,69.31
2022-11-25T17:54:50.580Z,69.33
2022-11-25T17:57:22.707Z,69.01
2022-11-25T17:59:51.257Z,69.57
2022-11-25T18:02:20.960Z,69.06
2022-11-25T18:04:51.294Z,69.39
2022-11-25T18:07:19.649Z,69.33
2022-11-25T18:09:48.109Z,69.15
2022-11-25T18:12:20.460Z,69.58
2022-11-25T18:14:48.599Z,69.08
2022-11-25T18:17:19.240Z,69.03
2022-11-25T18:19:52.935Z,69.42
2022-11-25T18:22:25.151Z,69.26
2022-11-25T18:24:54.038Z,69.54
2022-11-25T18:27:24.933Z,69.33
2022-11-25T18:29:53.881Z,69.41
2022-11-25T18:32:22.811Z,69.83
2022-11-25T18:34:51.590Z,69.90
2022-11-25T18:37:19.674Z,69.97
2022-11-25T18:39:49.129Z,70.12
2022-11-25T18:42:26.976Z,70.00
2022-11-25T18:44:56.362Z,70.43
2022-11-25T18:47:25.137Z,70.98
2022-11-25T18:49:56.145Z,70.83
2022-11-25T18:52:25.091Z,71.09
2022-11-25T18:54:54.648Z,71.26
2022-11-25T18:57:22.864Z,72.05
2022-11-25T19:00:17.001Z,71.70
2022-11-25T19:02:39.384Z,71.85
2022-11-25T19:05:17.048Z,71.92
2022-11-25T19:07:46.212Z,72.80
2022-11-25T19:10:17.852Z,72.73
2022-11-25T19:12:49.550Z,72.59
2022-11-25T19:15:20.714Z,72.92
2022-11-25T19:17:52.106Z,73.56
2022-11-25T19:20:22.328Z,73.54
2022-11-25T19:22:50.838Z,73.01
2022-11-25T19:25:20.395Z,73.17
2022-11-25T19:27:52.280Z,72.79
2022-11-25T19:30:26.649Z,73.34
2022-11-25T19:33:01.090Z,72.90
2022-11-25T19:35:34.486Z,73.59
2022-11-25T19:38:03.060Z,73.50
2022-11-25T19:40:39.114Z,73.49
2022-11-25T19:43:08.803Z,73.52
2022-11-25T19:45:37.836Z,73.94
2022-11-25T19:48:08.740Z,73.23
2022-11-25T19:50:40.470Z,73.69
2022-11-25T19:53:16.925Z,73.85
2022-11-25T19:55:46.887Z,74.08
2022-11-25T19:58:16.253Z,74.13
2022-11-25T20:00:47.353Z,74.40
2022-11-25T20:03:22.186Z,74.26
2022-11-25T20:05:51.896Z,74.08
2022-11-25T20:08:22.112Z,74.13
2022-11-25T20:10:52.331Z,74.79
2022-11-25T20:13:20.845Z,75.23
2022-11-25T20:15:49.057Z,76.07
2022-11-25T20:18:19.987Z,76.19
2022-11-25T20:20:49.827Z,76.52
2022-11-25T20:23:25.618Z,75.95
2022-11-25T20:25:55.239Z,75.57
2022-11-25T20:28:26.379Z,75.48
2022-11-25T20:30:55.561Z,74.69
2022-11-25T20:33:24.978Z,74.49
2022-11-25T20:35:56.570Z,74.14
2022-11-25T20:38:28.079Z,74.42
2022-11-25T20:41:00.254Z,74.75
2022-11-25T20:43:38.807Z,74.70
2022-11-25T20:46:31.743Z,75.30
2022-11-25T20:49:03.431Z,75.22
2022-11-25T20:51:31.714Z,75.45
2022-11-25T20:54:02.152Z,75.50
2022-11-25T20:56:31.682Z,76.02
2022-11-25T20:58:59.736Z,75.22
2022-11-25T21:01:27.884Z,75.07
2022-11-25T21:03:55.968Z,75.28
2022-11-25T21:06:28.770Z,75.38
2022-11-25T21:08:59.414Z,75.72
2022-11-25T21:11:28.078Z,75.78
2022-11-25T21:13:57.660Z,76.21
2022-11-25T21:16:27.579Z,76.81
2022-11-25T21:18:55.737Z,75.84
2022-11-25T21:21:31.747Z,76.01
2022-11-25T21:24:09.972Z,75.54
2022-11-25T21:27:05.529Z,75.62
2022-11-25T21:29:37.409Z,75.56
2022-11-25T21:32:12.344Z,75.42
2022-11-25T21:34:40.688Z,74.97
2022-11-25T21:37:12.131Z,74.68
2022-11-25T21:39:40.288Z,75.07
2022-11-25T21:42:15.484Z,74.88
2022-11-25T21:44:47.104Z,75.00
2022-11-25T21:47:16.315Z,74.98
2022-11-25T21:49:44.872Z,74.98
2022-11-25T21:52:13.106Z,75.24
2022-11-25T21:54:41.920Z,75.20
2022-11-25T21:57:15.989Z,76.01
2022-11-25T21:59:46.626Z,75.68
2022-11-25T22:02:18.844Z,75.60
2022-11-25T22:04:47.035Z,75.63
2022-11-25T22:07:15.760Z,75.54
2022-11-25T22:09:43.967Z,75.21
2022-11-25T22:12:26.235Z,75.22
2022-11-25T22:14:56.293Z,75.31
2022-11-25T22:17:24.535Z,75.03
2022-11-25T22:19:53.291Z,74.91
2022-11-25T22:22:21.464Z,74.98
2022-11-25T22:24:49.674Z,74.92
2022-11-25T22:27:23.574Z,75.10
2022-11-25T22:29:53.038Z,75.41
2022-11-25T22:32:22.561Z,75.62
2022-11-25T22:34:50.566Z,75.44
2022-11-25T22:37:21.031Z,76.21
2022-11-25T22:39:49.484Z,76.37
2022-11-25T22:42:25.570Z,76.78
2022-11-25T22:44:55.668Z,76.91
2022-11-25T22:47:29.775Z,77.16
2022-11-25T22:49:57.983Z,77.03
2022-11-25T22:52:29.636Z,77.90
2022-11-25T22:55:00.868Z,77.75
2022-11-25T22:57:29.094Z,77.99
2022-11-25T22:59:57.144Z,78.71
2022-11-25T23:02:33.550Z,78.14
2022-11-25T23:05:01.876Z,77.99
2022-11-25T23:07:30.011Z,78.51
2022-11-25T23:09:58.138Z,77.92
2022-11-25T23:12:26.143Z,78.22
2022-11-25T23:14:54.213Z,78.39
2022-11-25T23:17:24.610Z,78.53
2022-11-25T23:19:54.821Z,78.25
2022-11-25T23:22:23.585Z,78.59
2022-11-25T23:24:51.823Z,78.84
2022-11-25T23:27:19.917Z,78.89
2022-11-25T23:29:47.993Z,78.86
2022-11-25T23:32:19.734Z,78.61
2022-11-25T23:34:51.016Z,78.59
2022-11-25T23:37:20.652Z,78.39
2022-11-25T23:39:52.554Z,78.80
2022-11-25T23:42:21.516Z,78.79
2022-11-25T23:44:50.163Z,78.64
2022-11-25T23:47:21.174Z,78.08
2022-11-25T23:49:52.218Z,78.08
2022-11-25T23:52:24.661Z,77.99
2022-11-25T23:54:54.292Z,77.69
2022-11-25T23:57:24.248Z,77.45
2022-11-25T23:59:53.238Z,76.88
